Reliance, WY (82943)

10:33 PM MDT on August 27, 2014 (GMT -0600)
Fairway Estates | Change Station
CLOSE
Current Station
Personal Weather Station
Location: Rock Springs, WY
Elevation: 6430 ft
Nearby Weather Stations

Elev 6430 ft 41.64 °N, 109.25 °W | Updated 1 minute ago

Overcast
Overcast
52.2 °F
Feels Like 52.2 °F
N
2.0
Wind Variable Wind from South
Gusts 6.0 mph

Today
High -- | Low -- °F
--% Chance of Precip.
Yesterday
High -- | Low -- °F
Precip. -- in
6:37 AM 7:58 PM
Waxing Crescent, 6% visible
Pressure 30.16 in
Visibility 10.0 miles
Clouds Scattered Clouds 7000 ft
Overcast 9500 ft
Dew Point 49 °F
Humidity 88%
Rainfall 0.14 in
Snow Depth Not available.
UV 0 out of 12
Pollen 8.20 out of 12
Air Quality Not available.
Flu Activity Not available.
METAR KRKS 280354Z AUTO 24012KT 10SM SCT070 OVC095 11/09 A3030 RMK AO2 RAE18 SLP211 P0000 T01060094

More Conditions Fewer Conditions

Pressure 30.16 in
Visibility 10.0 miles
Clouds Scattered Clouds 7000 ft
Overcast 9500 ft
Dew Point 49 °F
Humidity 88%
Rainfall 0.14 in
Snow Depth Not available.
UV 0 out of 12
Pollen 8.20 out of 12
Air Quality Not available.
Flu Activity Not available.
METAR KRKS 280354Z AUTO 24012KT 10SM SCT070 OVC095 11/09 A3030 RMK AO2 RAE18 SLP211 P0000 T01060094

More Conditions Fewer Conditions

10-Day Weather Forecast

Almanac

Astronomy

Aug. 27, 2014 Rise Set
Actual Time 6:37 AM MDT 7:58 PM MDT
Civil Twilight 6:08 AM MDT 8:26 PM MDT
Nautical Twilight 5:34 AM MDT 9:01 PM MDT
Astronomical Twilight 4:57 AM MDT 9:37 PM MDT
Moon 8:39 AM MDT (8/27) 8:49 PM MDT (8/27)
Length of Visible Light 14h 18m
Length of Day
13h 20m
Tomorrow will be 2m 38s shorter.
Waxing Crescent, 6% of the Moon is Illuminated
Aug 28
Waxing Crescent
Sep 2
First Quarter
Sep 8
Full
Sep 15
Last Quarter
Sep 24
New

Today's Extremes

State Highs State Lows

Community

WunderPhotos

Upload Photos

1,747,907 photos uploaded!

Nearby

Snow Depth

Station Depth Elevation
Big Sandy Opening 0 in 9080 ft
Hams Fork 0 in 7840 ft
Kelley R.S. 0 in 8180 ft
Salt River Summit 0 in 7600 ft
New Fork Lake 0 in 8340 ft

Earthquake Activity

City Distance Mag. Time & Date
No recent earthquake activity has been reported nearby.
Minimum magnitude displayed is 2.5.

Coastal Water Temperatures

Place Temperature
No Stations Reporting

Nearby Weather Stations